sensor_id;sensor_type;location;lat;lon;timestamp;pressure;altitude;pressure_sealevel;temperature
29423;BMP180;16399;51.686;8.684;2023-04-25T00:02:08;99143.00;;;6.40
29423;BMP180;16399;51.686;8.684;2023-04-25T00:05:10;99140.00;;;6.50
29423;BMP180;16399;51.686;8.684;2023-04-25T00:08:12;99148.00;;;6.50
29423;BMP180;16399;51.686;8.684;2023-04-25T00:11:15;99141.00;;;6.50
29423;BMP180;16399;51.686;8.684;2023-04-25T00:14:17;99149.00;;;6.50
29423;BMP180;16399;51.686;8.684;2023-04-25T00:17:19;99150.00;;;6.60
29423;BMP180;16399;51.686;8.684;2023-04-25T00:20:23;99141.00;;;6.60
29423;BMP180;16399;51.686;8.684;2023-04-25T00:23:26;99142.00;;;6.60
29423;BMP180;16399;51.686;8.684;2023-04-25T00:26:28;99142.00;;;6.60
29423;BMP180;16399;51.686;8.684;2023-04-25T00:29:30;99146.00;;;6.60
29423;BMP180;16399;51.686;8.684;2023-04-25T00:32:32;99144.00;;;6.60
29423;BMP180;16399;51.686;8.684;2023-04-25T00:35:35;99137.00;;;6.60
29423;BMP180;16399;51.686;8.684;2023-04-25T00:38:37;99143.00;;;6.60
29423;BMP180;16399;51.686;8.684;2023-04-25T00:41:40;99134.00;;;6.60
29423;BMP180;16399;51.686;8.684;2023-04-25T00:44:43;99132.00;;;6.60
29423;BMP180;16399;51.686;8.684;2023-04-25T00:47:46;99135.00;;;6.60
29423;BMP180;16399;51.686;8.684;2023-04-25T00:50:55;99130.00;;;6.60
29423;BMP180;16399;51.686;8.684;2023-04-25T00:53:57;99132.00;;;6.60
29423;BMP180;16399;51.686;8.684;2023-04-25T00:57:00;99130.00;;;6.60
29423;BMP180;16399;51.686;8.684;2023-04-25T01:00:07;99127.00;;;6.60
29423;BMP180;16399;51.686;8.684;2023-04-25T01:03:10;99124.00;;;6.60
29423;BMP180;16399;51.686;8.684;2023-04-25T01:06:13;99124.00;;;6.50
29423;BMP180;16399;51.686;8.684;2023-04-25T01:09:16;99114.00;;;6.60
29423;BMP180;16399;51.686;8.684;2023-04-25T01:12:18;99115.00;;;6.60
29423;BMP180;16399;51.686;8.684;2023-04-25T01:15:21;99119.00;;;6.60
29423;BMP180;16399;51.686;8.684;2023-04-25T01:18:23;99126.00;;;6.60
29423;BMP180;16399;51.686;8.684;2023-04-25T01:21:26;99125.00;;;6.60
29423;BMP180;16399;51.686;8.684;2023-04-25T01:24:31;99126.00;;;6.60
29423;BMP180;16399;51.686;8.684;2023-04-25T01:27:35;99134.00;;;6.50
29423;BMP180;16399;51.686;8.684;2023-04-25T01:30:39;99131.00;;;6.50
29423;BMP180;16399;51.686;8.684;2023-04-25T01:33:41;99131.00;;;6.50
29423;BMP180;16399;51.686;8.684;2023-04-25T01:36:43;99119.00;;;6.50
29423;BMP180;16399;51.686;8.684;2023-04-25T01:39:46;99130.00;;;6.40
29423;BMP180;16399;51.686;8.684;2023-04-25T01:42:50;99132.00;;;6.40
29423;BMP180;16399;51.686;8.684;2023-04-25T01:45:52;99137.00;;;6.40
29423;BMP180;16399;51.686;8.684;2023-04-25T01:48:55;99131.00;;;6.30
29423;BMP180;16399;51.686;8.684;2023-04-25T01:51:57;99140.00;;;6.30
29423;BMP180;16399;51.686;8.684;2023-04-25T01:55:02;99140.00;;;6.20
29423;BMP180;16399;51.686;8.684;2023-04-25T01:58:04;99142.00;;;6.20
29423;BMP180;16399;51.686;8.684;2023-04-25T02:01:10;99147.00;;;6.20
29423;BMP180;16399;51.686;8.684;2023-04-25T02:04:12;99151.00;;;6.20
29423;BMP180;16399;51.686;8.684;2023-04-25T02:07:15;99147.00;;;6.10
29423;BMP180;16399;51.686;8.684;2023-04-25T02:10:17;99138.00;;;6.20
29423;BMP180;16399;51.686;8.684;2023-04-25T02:13:19;99149.00;;;6.10
29423;BMP180;16399;51.686;8.684;2023-04-25T02:16:21;99147.00;;;6.20
29423;BMP180;16399;51.686;8.684;2023-04-25T02:19:24;99146.00;;;6.20
29423;BMP180;16399;51.686;8.684;2023-04-25T02:22:26;99147.00;;;6.20
29423;BMP180;16399;51.686;8.684;2023-04-25T02:25:30;99156.00;;;6.20
29423;BMP180;16399;51.686;8.684;2023-04-25T02:28:33;99150.00;;;6.20
29423;BMP180;16399;51.686;8.684;2023-04-25T02:31:35;99154.00;;;6.20
29423;BMP180;16399;51.686;8.684;2023-04-25T02:34:37;99151.00;;;6.20
29423;BMP180;16399;51.686;8.684;2023-04-25T02:37:40;99151.00;;;6.20
29423;BMP180;16399;51.686;8.684;2023-04-25T02:40:42;99145.00;;;6.10
29423;BMP180;16399;51.686;8.684;2023-04-25T02:43:45;99152.00;;;6.10
29423;BMP180;16399;51.686;8.684;2023-04-25T02:46:47;99146.00;;;6.10
29423;BMP180;16399;51.686;8.684;2023-04-25T02:49:49;99147.00;;;6.00
29423;BMP180;16399;51.686;8.684;2023-04-25T02:52:51;99152.00;;;6.00
29423;BMP180;16399;51.686;8.684;2023-04-25T02:55:54;99153.00;;;5.90
29423;BMP180;16399;51.686;8.684;2023-04-25T02:58:58;99126.00;;;5.90
29423;BMP180;16399;51.686;8.684;2023-04-25T03:02:01;99145.00;;;5.90
29423;BMP180;16399;51.686;8.684;2023-04-25T03:05:03;99139.00;;;5.90
29423;BMP180;16399;51.686;8.684;2023-04-25T03:08:06;99153.00;;;5.90
29423;BMP180;16399;51.686;8.684;2023-04-25T03:11:08;99153.00;;;5.80
29423;BMP180;16399;51.686;8.684;2023-04-25T03:14:11;99162.00;;;5.80
29423;BMP180;16399;51.686;8.684;2023-04-25T03:17:13;99165.00;;;5.80
29423;BMP180;16399;51.686;8.684;2023-04-25T03:20:15;99164.00;;;5.80
29423;BMP180;16399;51.686;8.684;2023-04-25T03:23:18;99169.00;;;5.80
29423;BMP180;16399;51.686;8.684;2023-04-25T03:26:20;99158.00;;;5.80
29423;BMP180;16399;51.686;8.684;2023-04-25T03:29:22;99160.00;;;5.80
29423;BMP180;16399;51.686;8.684;2023-04-25T03:32:27;99162.00;;;5.80
29423;BMP180;16399;51.686;8.684;2023-04-25T03:35:29;99159.00;;;5.80
29423;BMP180;16399;51.686;8.684;2023-04-25T03:38:32;99168.00;;;5.80
29423;BMP180;16399;51.686;8.684;2023-04-25T03:41:34;99167.00;;;5.80
29423;BMP180;16399;51.686;8.684;2023-04-25T03:44:36;99168.00;;;5.80
29423;BMP180;16399;51.686;8.684;2023-04-25T03:47:39;99167.00;;;5.90
29423;BMP180;16399;51.686;8.684;2023-04-25T03:50:41;99172.00;;;5.90
29423;BMP180;16399;51.686;8.684;2023-04-25T03:53:43;99176.00;;;5.90
29423;BMP180;16399;51.686;8.684;2023-04-25T03:56:45;99186.00;;;5.90
29423;BMP180;16399;51.686;8.684;2023-04-25T03:59:48;99182.00;;;6.00
29423;BMP180;16399;51.686;8.684;2023-04-25T04:02:50;99186.00;;;6.00
29423;BMP180;16399;51.686;8.684;2023-04-25T04:05:52;99187.00;;;6.00
29423;BMP180;16399;51.686;8.684;2023-04-25T04:08:55;99186.00;;;6.00
29423;BMP180;16399;51.686;8.684;2023-04-25T04:11:57;99185.00;;;6.00
29423;BMP180;16399;51.686;8.684;2023-04-25T04:15:00;99184.00;;;6.00
29423;BMP180;16399;51.686;8.684;2023-04-25T04:18:02;99185.00;;;6.00
29423;BMP180;16399;51.686;8.684;2023-04-25T04:21:05;99204.00;;;6.00
29423;BMP180;16399;51.686;8.684;2023-04-25T04:24:07;99216.00;;;6.00
29423;BMP180;16399;51.686;8.684;2023-04-25T04:27:10;99210.00;;;6.00
29423;BMP180;16399;51.686;8.684;2023-04-25T04:30:13;99214.00;;;6.10
29423;BMP180;16399;51.686;8.684;2023-04-25T04:33:17;99216.00;;;6.10
29423;BMP180;16399;51.686;8.684;2023-04-25T04:36:21;99224.00;;;6.10
29423;BMP180;16399;51.686;8.684;2023-04-25T04:39:24;99229.00;;;6.10
29423;BMP180;16399;51.686;8.684;2023-04-25T04:42:27;99238.00;;;6.10
29423;BMP180;16399;51.686;8.684;2023-04-25T04:45:29;99246.00;;;6.20
29423;BMP180;16399;51.686;8.684;2023-04-25T04:48:32;99247.00;;;6.20
29423;BMP180;16399;51.686;8.684;2023-04-25T04:51:35;99249.00;;;6.20
29423;BMP180;16399;51.686;8.684;2023-04-25T04:54:37;99246.00;;;6.20
29423;BMP180;16399;51.686;8.684;2023-04-25T04:57:40;99249.00;;;6.20
29423;BMP180;16399;51.686;8.684;2023-04-25T05:00:42;99258.00;;;6.20
29423;BMP180;16399;51.686;8.684;2023-04-25T05:03:44;99267.00;;;6.30
29423;BMP180;16399;51.686;8.684;2023-04-25T05:06:47;99260.00;;;6.30
29423;BMP180;16399;51.686;8.684;2023-04-25T05:09:49;99270.00;;;6.30
29423;BMP180;16399;51.686;8.684;2023-04-25T05:12:51;99274.00;;;6.30
29423;BMP180;16399;51.686;8.684;2023-04-25T05:15:54;99289.00;;;6.20
29423;BMP180;16399;51.686;8.684;2023-04-25T05:18:56;99290.00;;;6.20
29423;BMP180;16399;51.686;8.684;2023-04-25T05:21:58;99296.00;;;6.20
29423;BMP180;16399;51.686;8.684;2023-04-25T05:25:00;99292.00;;;6.20
29423;BMP180;16399;51.686;8.684;2023-04-25T05:28:03;99295.00;;;6.20
29423;BMP180;16399;51.686;8.684;2023-04-25T05:31:07;99291.00;;;6.20
29423;BMP180;16399;51.686;8.684;2023-04-25T05:34:09;99306.00;;;6.20
29423;BMP180;16399;51.686;8.684;2023-04-25T05:37:11;99300.00;;;6.30
29423;BMP180;16399;51.686;8.684;2023-04-25T05:40:13;99296.00;;;6.30
29423;BMP180;16399;51.686;8.684;2023-04-25T05:43:16;99308.00;;;6.30
29423;BMP180;16399;51.686;8.684;2023-04-25T05:46:18;99296.00;;;6.30
29423;BMP180;16399;51.686;8.684;2023-04-25T05:49:21;99319.00;;;6.30
29423;BMP180;16399;51.686;8.684;2023-04-25T05:52:23;99305.00;;;6.40
29423;BMP180;16399;51.686;8.684;2023-04-25T05:55:26;99305.00;;;6.40
29423;BMP180;16399;51.686;8.684;2023-04-25T05:58:28;99318.00;;;6.50
29423;BMP180;16399;51.686;8.684;2023-04-25T06:01:31;99326.00;;;6.50
29423;BMP180;16399;51.686;8.684;2023-04-25T06:04:33;99316.00;;;6.60
29423;BMP180;16399;51.686;8.684;2023-04-25T06:07:36;99319.00;;;6.60
29423;BMP180;16399;51.686;8.684;2023-04-25T06:10:38;99318.00;;;6.60
29423;BMP180;16399;51.686;8.684;2023-04-25T06:13:40;99327.00;;;6.70
29423;BMP180;16399;51.686;8.684;2023-04-25T06:16:42;99330.00;;;6.80
29423;BMP180;16399;51.686;8.684;2023-04-25T06:19:45;99323.00;;;6.80
29423;BMP180;16399;51.686;8.684;2023-04-25T06:22:47;99321.00;;;6.90
29423;BMP180;16399;51.686;8.684;2023-04-25T06:25:49;99325.00;;;7.00
29423;BMP180;16399;51.686;8.684;2023-04-25T06:28:52;99329.00;;;7.00
29423;BMP180;16399;51.686;8.684;2023-04-25T06:31:54;99337.00;;;7.10
29423;BMP180;16399;51.686;8.684;2023-04-25T06:34:56;99335.00;;;7.20
29423;BMP180;16399;51.686;8.684;2023-04-25T06:37:59;99343.00;;;7.20
29423;BMP180;16399;51.686;8.684;2023-04-25T06:41:01;99345.00;;;7.30
29423;BMP180;16399;51.686;8.684;2023-04-25T06:44:04;99341.00;;;7.30
29423;BMP180;16399;51.686;8.684;2023-04-25T06:47:06;99343.00;;;7.30
29423;BMP180;16399;51.686;8.684;2023-04-25T06:50:08;99344.00;;;7.40
29423;BMP180;16399;51.686;8.684;2023-04-25T06:53:12;99352.00;;;7.50
29423;BMP180;16399;51.686;8.684;2023-04-25T06:56:14;99359.00;;;7.70
29423;BMP180;16399;51.686;8.684;2023-04-25T06:59:17;99353.00;;;7.70
29423;BMP180;16399;51.686;8.684;2023-04-25T07:02:19;99358.00;;;7.80
29423;BMP180;16399;51.686;8.684;2023-04-25T07:05:22;99362.00;;;7.80
29423;BMP180;16399;51.686;8.684;2023-04-25T07:08:25;99372.00;;;7.80
29423;BMP180;16399;51.686;8.684;2023-04-25T07:11:28;99364.00;;;7.90
29423;BMP180;16399;51.686;8.684;2023-04-25T07:14:30;99362.00;;;8.00
29423;BMP180;16399;51.686;8.684;2023-04-25T07:17:33;99371.00;;;8.00
29423;BMP180;16399;51.686;8.684;2023-04-25T07:20:35;99364.00;;;8.00
29423;BMP180;16399;51.686;8.684;2023-04-25T07:23:37;99374.00;;;8.10
29423;BMP180;16399;51.686;8.684;2023-04-25T07:26:41;99368.00;;;8.00
29423;BMP180;16399;51.686;8.684;2023-04-25T07:29:43;99373.00;;;8.00
29423;BMP180;16399;51.686;8.684;2023-04-25T07:32:46;99383.00;;;8.00
29423;BMP180;16399;51.686;8.684;2023-04-25T07:35:48;99376.00;;;7.90
29423;BMP180;16399;51.686;8.684;2023-04-25T07:38:51;99383.00;;;8.00
29423;BMP180;16399;51.686;8.684;2023-04-25T07:41:53;99376.00;;;8.10
29423;BMP180;16399;51.686;8.684;2023-04-25T07:44:56;99382.00;;;8.30
29423;BMP180;16399;51.686;8.684;2023-04-25T07:47:58;99371.00;;;8.50
29423;BMP180;16399;51.686;8.684;2023-04-25T07:51:00;99378.00;;;8.90
29423;BMP180;16399;51.686;8.684;2023-04-25T07:54:03;99382.00;;;8.90
29423;BMP180;16399;51.686;8.684;2023-04-25T07:57:06;99387.00;;;8.80
29423;BMP180;16399;51.686;8.684;2023-04-25T08:00:09;99380.00;;;8.80
29423;BMP180;16399;51.686;8.684;2023-04-25T08:03:12;99383.00;;;8.90
29423;BMP180;16399;51.686;8.684;2023-04-25T08:06:14;99382.00;;;8.90
29423;BMP180;16399;51.686;8.684;2023-04-25T08:09:16;99403.00;;;9.10
29423;BMP180;16399;51.686;8.684;2023-04-25T08:12:19;99398.00;;;9.00
29423;BMP180;16399;51.686;8.684;2023-04-25T08:15:21;99406.00;;;9.10
29423;BMP180;16399;51.686;8.684;2023-04-25T08:18:23;99398.00;;;9.10
29423;BMP180;16399;51.686;8.684;2023-04-25T08:21:26;99404.00;;;9.10
29423;BMP180;16399;51.686;8.684;2023-04-25T08:24:28;99404.00;;;9.20
29423;BMP180;16399;51.686;8.684;2023-04-25T08:27:31;99409.00;;;9.20
29423;BMP180;16399;51.686;8.684;2023-04-25T08:30:33;99408.00;;;9.40
29423;BMP180;16399;51.686;8.684;2023-04-25T08:33:35;99412.00;;;9.60
29423;BMP180;16399;51.686;8.684;2023-04-25T08:36:39;99413.00;;;9.80
29423;BMP180;16399;51.686;8.684;2023-04-25T08:39:42;99407.00;;;9.90
29423;BMP180;16399;51.686;8.684;2023-04-25T08:42:44;99425.00;;;10.00
29423;BMP180;16399;51.686;8.684;2023-04-25T08:45:48;99433.00;;;10.10
29423;BMP180;16399;51.686;8.684;2023-04-25T08:48:52;99428.00;;;10.10
29423;BMP180;16399;51.686;8.684;2023-04-25T08:51:54;99439.00;;;10.20
29423;BMP180;16399;51.686;8.684;2023-04-25T08:54:58;99451.00;;;10.30
29423;BMP180;16399;51.686;8.684;2023-04-25T08:58:02;99449.00;;;10.50
29423;BMP180;16399;51.686;8.684;2023-04-25T09:01:04;99451.00;;;10.50
29423;BMP180;16399;51.686;8.684;2023-04-25T09:04:06;99464.00;;;10.40
29423;BMP180;16399;51.686;8.684;2023-04-25T09:07:09;99472.00;;;10.30
29423;BMP180;16399;51.686;8.684;2023-04-25T09:10:11;99465.00;;;10.40
29423;BMP180;16399;51.686;8.684;2023-04-25T09:13:14;99478.00;;;10.40
29423;BMP180;16399;51.686;8.684;2023-04-25T09:16:18;99481.00;;;10.50
29423;BMP180;16399;51.686;8.684;2023-04-25T09:19:23;99483.00;;;10.50
29423;BMP180;16399;51.686;8.684;2023-04-25T09:22:26;99477.00;;;10.60
29423;BMP180;16399;51.686;8.684;2023-04-25T09:25:33;99485.00;;;10.70
29423;BMP180;16399;51.686;8.684;2023-04-25T09:28:33;99479.00;;;10.80
29423;BMP180;16399;51.686;8.684;2023-04-25T09:31:36;99491.00;;;10.90
29423;BMP180;16399;51.686;8.684;2023-04-25T09:34:42;99492.00;;;10.90
29423;BMP180;16399;51.686;8.684;2023-04-25T09:37:46;99495.00;;;11.10
29423;BMP180;16399;51.686;8.684;2023-04-25T09:40:48;99495.00;;;11.20
29423;BMP180;16399;51.686;8.684;2023-04-25T09:44:00;99489.00;;;11.20
29423;BMP180;16399;51.686;8.684;2023-04-25T09:46:59;99510.00;;;11.10
29423;BMP180;16399;51.686;8.684;2023-04-25T09:50:13;99511.00;;;11.00
29423;BMP180;16399;51.686;8.684;2023-04-25T09:53:09;99499.00;;;10.90
29423;BMP180;16399;51.686;8.684;2023-04-25T09:56:12;99507.00;;;10.70
29423;BMP180;16399;51.686;8.684;2023-04-25T09:59:15;99510.00;;;10.80
29423;BMP180;16399;51.686;8.684;2023-04-25T10:02:24;99521.00;;;10.80
29423;BMP180;16399;51.686;8.684;2023-04-25T10:05:23;99526.00;;;10.70
29423;BMP180;16399;51.686;8.684;2023-04-25T10:08:32;99526.00;;;10.60
29423;BMP180;16399;51.686;8.684;2023-04-25T10:11:35;99535.00;;;10.50
29423;BMP180;16399;51.686;8.684;2023-04-25T10:14:38;99533.00;;;10.60
29423;BMP180;16399;51.686;8.684;2023-04-25T10:17:42;99532.00;;;10.60
29423;BMP180;16399;51.686;8.684;2023-04-25T10:20:44;99530.00;;;10.90
29423;BMP180;16399;51.686;8.684;2023-04-25T10:23:48;99524.00;;;11.30
29423;BMP180;16399;51.686;8.684;2023-04-25T10:26:51;99535.00;;;11.30
29423;BMP180;16399;51.686;8.684;2023-04-25T10:30:04;99537.00;;;11.20
29423;BMP180;16399;51.686;8.684;2023-04-25T10:33:18;99530.00;;;11.20
29423;BMP180;16399;51.686;8.684;2023-04-25T10:36:14;99525.00;;;11.20
29423;BMP180;16399;51.686;8.684;2023-04-25T10:39:26;99525.00;;;11.70
29423;BMP180;16399;51.686;8.684;2023-04-25T10:42:25;99513.00;;;12.10
29423;BMP180;16399;51.686;8.684;2023-04-25T10:45:27;99515.00;;;12.60
29423;BMP180;16399;51.686;8.684;2023-04-25T10:48:31;99527.00;;;12.80
29423;BMP180;16399;51.686;8.684;2023-04-25T10:51:34;99515.00;;;13.10
29423;BMP180;16399;51.686;8.684;2023-04-25T10:54:41;99538.00;;;13.10
29423;BMP180;16399;51.686;8.684;2023-04-25T10:57:45;99533.00;;;12.50
29423;BMP180;16399;51.686;8.684;2023-04-25T11:00:50;99542.00;;;12.00
29423;BMP180;16399;51.686;8.684;2023-04-25T11:03:57;99555.00;;;11.40
29423;BMP180;16399;51.686;8.684;2023-04-25T11:07:13;99563.00;;;10.90
29423;BMP180;16399;51.686;8.684;2023-04-25T11:10:15;99555.00;;;10.60
29423;BMP180;16399;51.686;8.684;2023-04-25T11:13:25;99557.00;;;10.40
29423;BMP180;16399;51.686;8.684;2023-04-25T11:16:24;99564.00;;;10.20
29423;BMP180;16399;51.686;8.684;2023-04-25T11:19:28;99568.00;;;10.00
29423;BMP180;16399;51.686;8.684;2023-04-25T11:22:30;99565.00;;;9.90
29423;BMP180;16399;51.686;8.684;2023-04-25T11:25:33;99567.00;;;9.90
29423;BMP180;16399;51.686;8.684;2023-04-25T11:28:35;99562.00;;;10.20
29423;BMP180;16399;51.686;8.684;2023-04-25T11:31:38;99566.00;;;10.70
29423;BMP180;16399;51.686;8.684;2023-04-25T11:34:43;99561.00;;;10.90
29423;BMP180;16399;51.686;8.684;2023-04-25T11:37:47;99560.00;;;11.40
29423;BMP180;16399;51.686;8.684;2023-04-25T11:40:53;99553.00;;;11.70
29423;BMP180;16399;51.686;8.684;2023-04-25T11:43:56;99549.00;;;12.20
29423;BMP180;16399;51.686;8.684;2023-04-25T11:46:58;99543.00;;;12.70
29423;BMP180;16399;51.686;8.684;2023-04-25T11:50:03;99544.00;;;12.90
29423;BMP180;16399;51.686;8.684;2023-04-25T11:53:05;99548.00;;;13.10
29423;BMP180;16399;51.686;8.684;2023-04-25T11:56:11;99550.00;;;13.30
29423;BMP180;16399;51.686;8.684;2023-04-25T11:59:14;99547.00;;;13.10
29423;BMP180;16399;51.686;8.684;2023-04-25T12:02:26;99562.00;;;12.70
29423;BMP180;16399;51.686;8.684;2023-04-25T12:05:30;99578.00;;;12.20
29423;BMP180;16399;51.686;8.684;2023-04-25T12:08:34;99579.00;;;11.70
29423;BMP180;16399;51.686;8.684;2023-04-25T12:11:44;99600.00;;;11.20
29423;BMP180;16399;51.686;8.684;2023-04-25T12:14:47;99598.00;;;10.70
29423;BMP180;16399;51.686;8.684;2023-04-25T12:17:52;99595.00;;;10.50
29423;BMP180;16399;51.686;8.684;2023-04-25T12:20:56;99597.00;;;10.40
29423;BMP180;16399;51.686;8.684;2023-04-25T12:24:18;99600.00;;;10.30
29423;BMP180;16399;51.686;8.684;2023-04-25T12:27:25;99597.00;;;10.20
29423;BMP180;16399;51.686;8.684;2023-04-25T12:30:28;99604.00;;;10.20
29423;BMP180;16399;51.686;8.684;2023-04-25T12:33:37;99599.00;;;10.20
29423;BMP180;16399;51.686;8.684;2023-04-25T12:36:35;99613.00;;;10.20
29423;BMP180;16399;51.686;8.684;2023-04-25T12:39:37;99606.00;;;10.40
29423;BMP180;16399;51.686;8.684;2023-04-25T12:42:39;99612.00;;;10.60
29423;BMP180;16399;51.686;8.684;2023-04-25T12:45:41;99614.00;;;10.70
29423;BMP180;16399;51.686;8.684;2023-04-25T12:48:44;99612.00;;;10.70
29423;BMP180;16399;51.686;8.684;2023-04-25T12:51:46;99598.00;;;10.80
29423;BMP180;16399;51.686;8.684;2023-04-25T12:54:48;99596.00;;;11.30
29423;BMP180;16399;51.686;8.684;2023-04-25T12:57:50;99597.00;;;11.90
29423;BMP180;16399;51.686;8.684;2023-04-25T13:00:53;99587.00;;;12.20
29423;BMP180;16399;51.686;8.684;2023-04-25T13:03:55;99592.00;;;12.40
29423;BMP180;16399;51.686;8.684;2023-04-25T13:06:58;99593.00;;;12.60
29423;BMP180;16399;51.686;8.684;2023-04-25T13:10:01;99588.00;;;12.30
29423;BMP180;16399;51.686;8.684;2023-04-25T13:13:04;99599.00;;;12.30
29423;BMP180;16399;51.686;8.684;2023-04-25T13:16:07;99596.00;;;12.30
29423;BMP180;16399;51.686;8.684;2023-04-25T13:19:10;99594.00;;;12.50
29423;BMP180;16399;51.686;8.684;2023-04-25T13:22:12;99594.00;;;12.70
29423;BMP180;16399;51.686;8.684;2023-04-25T13:25:16;99591.00;;;12.90
29423;BMP180;16399;51.686;8.684;2023-04-25T13:28:18;99588.00;;;13.30
29423;BMP180;16399;51.686;8.684;2023-04-25T13:31:21;99586.00;;;13.50
29423;BMP180;16399;51.686;8.684;2023-04-25T13:34:23;99587.00;;;13.70
29423;BMP180;16399;51.686;8.684;2023-04-25T13:37:25;99591.00;;;13.90
29423;BMP180;16399;51.686;8.684;2023-04-25T13:40:27;99574.00;;;13.80
29423;BMP180;16399;51.686;8.684;2023-04-25T13:43:30;99589.00;;;13.90
29423;BMP180;16399;51.686;8.684;2023-04-25T13:46:35;99583.00;;;14.10
29423;BMP180;16399;51.686;8.684;2023-04-25T13:49:38;99593.00;;;14.10
29423;BMP180;16399;51.686;8.684;2023-04-25T13:52:40;99608.00;;;13.50
29423;BMP180;16399;51.686;8.684;2023-04-25T13:55:43;99608.00;;;13.00
29423;BMP180;16399;51.686;8.684;2023-04-25T13:58:45;99616.00;;;12.80
29423;BMP180;16399;51.686;8.684;2023-04-25T14:01:47;99597.00;;;12.70
29423;BMP180;16399;51.686;8.684;2023-04-25T14:04:50;99599.00;;;12.90
29423;BMP180;16399;51.686;8.684;2023-04-25T14:07:52;99585.00;;;13.10
29423;BMP180;16399;51.686;8.684;2023-04-25T14:10:55;99605.00;;;13.30
29423;BMP180;16399;51.686;8.684;2023-04-25T14:13:57;99605.00;;;13.50
29423;BMP180;16399;51.686;8.684;2023-04-25T14:16:59;99624.00;;;13.40
29423;BMP180;16399;51.686;8.684;2023-04-25T14:20:01;99618.00;;;13.00
29423;BMP180;16399;51.686;8.684;2023-04-25T14:23:05;99621.00;;;13.00
29423;BMP180;16399;51.686;8.684;2023-04-25T14:26:08;99638.00;;;12.60
29423;BMP180;16399;51.686;8.684;2023-04-25T14:29:12;99632.00;;;12.40
29423;BMP180;16399;51.686;8.684;2023-04-25T14:32:14;99625.00;;;12.50
29423;BMP180;16399;51.686;8.684;2023-04-25T14:35:16;99626.00;;;12.40
29423;BMP180;16399;51.686;8.684;2023-04-25T14:38:19;99628.00;;;12.50
29423;BMP180;16399;51.686;8.684;2023-04-25T14:41:24;99621.00;;;12.50
29423;BMP180;16399;51.686;8.684;2023-04-25T14:44:27;99642.00;;;12.50
29423;BMP180;16399;51.686;8.684;2023-04-25T14:47:29;99650.00;;;12.20
29423;BMP180;16399;51.686;8.684;2023-04-25T14:50:31;99655.00;;;11.70
29423;BMP180;16399;51.686;8.684;2023-04-25T14:53:34;99652.00;;;11.30
29423;BMP180;16399;51.686;8.684;2023-04-25T14:56:37;99682.00;;;10.80
29423;BMP180;16399;51.686;8.684;2023-04-25T14:59:39;99682.00;;;10.30
29423;BMP180;16399;51.686;8.684;2023-04-25T15:02:41;99693.00;;;9.80
29423;BMP180;16399;51.686;8.684;2023-04-25T15:05:44;99704.00;;;9.40
29423;BMP180;16399;51.686;8.684;2023-04-25T15:08:46;99711.00;;;9.20
29423;BMP180;16399;51.686;8.684;2023-04-25T15:11:48;99716.00;;;9.00
29423;BMP180;16399;51.686;8.684;2023-04-25T15:14:51;99709.00;;;9.20
29423;BMP180;16399;51.686;8.684;2023-04-25T15:17:54;99690.00;;;9.30
29423;BMP180;16399;51.686;8.684;2023-04-25T15:20:57;99711.00;;;9.60
29423;BMP180;16399;51.686;8.684;2023-04-25T15:23:59;99714.00;;;9.60
29423;BMP180;16399;51.686;8.684;2023-04-25T15:27:02;99718.00;;;9.40
29423;BMP180;16399;51.686;8.684;2023-04-25T15:30:07;99734.00;;;9.10
29423;BMP180;16399;51.686;8.684;2023-04-25T15:33:12;99711.00;;;9.10
29423;BMP180;16399;51.686;8.684;2023-04-25T15:36:14;99728.00;;;9.20
29423;BMP180;16399;51.686;8.684;2023-04-25T15:39:18;99732.00;;;9.30
29423;BMP180;16399;51.686;8.684;2023-04-25T15:42:20;99733.00;;;9.40
29423;BMP180;16399;51.686;8.684;2023-04-25T15:45:24;99704.00;;;9.60
29423;BMP180;16399;51.686;8.684;2023-04-25T15:48:26;99703.00;;;10.00
29423;BMP180;16399;51.686;8.684;2023-04-25T15:51:29;99707.00;;;10.30
29423;BMP180;16399;51.686;8.684;2023-04-25T15:54:32;99710.00;;;10.50
29423;BMP180;16399;51.686;8.684;2023-04-25T15:57:35;99706.00;;;10.60
29423;BMP180;16399;51.686;8.684;2023-04-25T16:00:38;99705.00;;;10.60
29423;BMP180;16399;51.686;8.684;2023-04-25T16:03:40;99727.00;;;10.70
29423;BMP180;16399;51.686;8.684;2023-04-25T16:06:42;99715.00;;;10.80
29423;BMP180;16399;51.686;8.684;2023-04-25T16:09:45;99711.00;;;10.70
29423;BMP180;16399;51.686;8.684;2023-04-25T16:12:48;99723.00;;;10.70
29423;BMP180;16399;51.686;8.684;2023-04-25T16:15:50;99719.00;;;10.60
29423;BMP180;16399;51.686;8.684;2023-04-25T16:18:52;99716.00;;;10.30
29423;BMP180;16399;51.686;8.684;2023-04-25T16:21:55;99718.00;;;10.00
29423;BMP180;16399;51.686;8.684;2023-04-25T16:24:57;99723.00;;;9.80
29423;BMP180;16399;51.686;8.684;2023-04-25T16:27:59;99727.00;;;9.70
29423;BMP180;16399;51.686;8.684;2023-04-25T16:31:02;99725.00;;;9.50
29423;BMP180;16399;51.686;8.684;2023-04-25T16:34:04;99736.00;;;9.40
29423;BMP180;16399;51.686;8.684;2023-04-25T16:37:06;99741.00;;;9.30
29423;BMP180;16399;51.686;8.684;2023-04-25T16:40:09;99743.00;;;9.10
29423;BMP180;16399;51.686;8.684;2023-04-25T16:43:12;99779.00;;;9.00
29423;BMP180;16399;51.686;8.684;2023-04-25T16:46:14;99775.00;;;8.60
29423;BMP180;16399;51.686;8.684;2023-04-25T16:49:18;99798.00;;;8.10
29423;BMP180;16399;51.686;8.684;2023-04-25T16:52:20;99805.00;;;7.70
29423;BMP180;16399;51.686;8.684;2023-04-25T16:55:23;99823.00;;;7.30
29423;BMP180;16399;51.686;8.684;2023-04-25T16:58:27;99791.00;;;7.20
29423;BMP180;16399;51.686;8.684;2023-04-25T17:01:29;99794.00;;;7.00
29423;BMP180;16399;51.686;8.684;2023-04-25T17:04:32;99791.00;;;7.00
29423;BMP180;16399;51.686;8.684;2023-04-25T17:07:36;99788.00;;;7.10
29423;BMP180;16399;51.686;8.684;2023-04-25T17:10:38;99797.00;;;7.10
29423;BMP180;16399;51.686;8.684;2023-04-25T17:13:40;99788.00;;;7.30
29423;BMP180;16399;51.686;8.684;2023-04-25T17:16:44;99785.00;;;7.40
29423;BMP180;16399;51.686;8.684;2023-04-25T17:19:46;99782.00;;;7.50
29423;BMP180;16399;51.686;8.684;2023-04-25T17:22:49;99793.00;;;7.50
29423;BMP180;16399;51.686;8.684;2023-04-25T17:25:51;99789.00;;;7.50
29423;BMP180;16399;51.686;8.684;2023-04-25T17:28:53;99809.00;;;7.50
29423;BMP180;16399;51.686;8.684;2023-04-25T17:31:56;99794.00;;;7.50
29423;BMP180;16399;51.686;8.684;2023-04-25T17:34:58;99792.00;;;7.50
29423;BMP180;16399;51.686;8.684;2023-04-25T17:38:01;99796.00;;;7.50
29423;BMP180;16399;51.686;8.684;2023-04-25T17:41:04;99810.00;;;7.50
29423;BMP180;16399;51.686;8.684;2023-04-25T17:44:06;99807.00;;;7.40